Lavina, Montana
Current Conditions -  °F | °C
As of 11:20 PM on Sunday 21 Dec 2014 (Local Time) from KMVH Reporting Station
Overcast Overcast  
Wind Chill: 24°   Ceiling: 2400
Heat Index: 36°   Visibility: 10mi
Dew Point: 23°   Wind: 23mph
Humidity: 60%   Direction: 300°WNW
Pressure: 29.64"   Gusts: 31mph
Location:  46.29°N, 108.94°W
Report Text: KMVH 220620Z AUTO 30020G27KT 10SM BKN024 OVC031 02/M05 A2964 RMK A01
Loading
Personal Weather Stations






























Interactive Weather Map New forecast layout! Learn more

10-Day Weather Forecast

Advertisements
Track Severe Weather on mobile